sensor_id;sensor_type;location;lat;lon;timestamp;P1;durP1;ratioP1;P2;durP2;ratioP2
46777;SDS011;32536;47.128;8.746;2023-06-26T00:01:28;5.35;;;3.22;;
46777;SDS011;32536;47.128;8.746;2023-06-26T00:03:57;4.90;;;2.97;;
46777;SDS011;32536;47.128;8.746;2023-06-26T00:06:24;4.75;;;2.55;;
46777;SDS011;32536;47.128;8.746;2023-06-26T00:08:52;5.03;;;3.10;;
46777;SDS011;32536;47.128;8.746;2023-06-26T00:11:21;4.53;;;3.08;;
46777;SDS011;32536;47.128;8.746;2023-06-26T00:13:48;5.25;;;2.55;;
46777;SDS011;32536;47.128;8.746;2023-06-26T00:16:15;4.10;;;2.65;;
46777;SDS011;32536;47.128;8.746;2023-06-26T00:18:41;3.92;;;1.83;;
46777;SDS011;32536;47.128;8.746;2023-06-26T00:21:08;4.22;;;1.88;;
46777;SDS011;32536;47.128;8.746;2023-06-26T00:23:35;4.50;;;1.73;;
46777;SDS011;32536;47.128;8.746;2023-06-26T00:26:05;4.32;;;2.90;;
46777;SDS011;32536;47.128;8.746;2023-06-26T00:28:31;5.70;;;2.63;;
46777;SDS011;32536;47.128;8.746;2023-06-26T00:30:58;5.50;;;2.83;;
46777;SDS011;32536;47.128;8.746;2023-06-26T00:33:25;4.68;;;2.72;;
46777;SDS011;32536;47.128;8.746;2023-06-26T00:35:52;5.07;;;3.00;;
46777;SDS011;32536;47.128;8.746;2023-06-26T00:38:18;5.65;;;3.83;;
46777;SDS011;32536;47.128;8.746;2023-06-26T00:40:45;6.07;;;3.75;;
46777;SDS011;32536;47.128;8.746;2023-06-26T00:43:12;4.75;;;2.30;;
46777;SDS011;32536;47.128;8.746;2023-06-26T00:45:39;4.85;;;2.35;;
46777;SDS011;32536;47.128;8.746;2023-06-26T00:48:05;4.20;;;2.00;;
46777;SDS011;32536;47.128;8.746;2023-06-26T00:50:32;3.80;;;1.63;;
46777;SDS011;32536;47.128;8.746;2023-06-26T00:52:59;3.83;;;2.30;;
46777;SDS011;32536;47.128;8.746;2023-06-26T00:55:27;3.92;;;1.77;;
46777;SDS011;32536;47.128;8.746;2023-06-26T00:57:54;3.83;;;2.80;;
46777;SDS011;32536;47.128;8.746;2023-06-26T01:00:21;3.40;;;1.58;;
46777;SDS011;32536;47.128;8.746;2023-06-26T01:02:48;3.83;;;2.28;;
46777;SDS011;32536;47.128;8.746;2023-06-26T01:05:15;3.78;;;2.05;;
46777;SDS011;32536;47.128;8.746;2023-06-26T01:07:47;4.55;;;2.22;;
46777;SDS011;32536;47.128;8.746;2023-06-26T01:10:15;4.40;;;2.60;;
46777;SDS011;32536;47.128;8.746;2023-06-26T01:12:42;3.60;;;1.77;;
46777;SDS011;32536;47.128;8.746;2023-06-26T01:15:09;3.33;;;1.30;;
46777;SDS011;32536;47.128;8.746;2023-06-26T01:17:37;3.55;;;1.67;;
46777;SDS011;32536;47.128;8.746;2023-06-26T01:20:06;4.30;;;2.45;;
46777;SDS011;32536;47.128;8.746;2023-06-26T01:22:38;4.30;;;2.95;;
46777;SDS011;32536;47.128;8.746;2023-06-26T01:25:33;4.25;;;2.30;;
46777;SDS011;32536;47.128;8.746;2023-06-26T01:28:17;4.50;;;2.38;;
46777;SDS011;32536;47.128;8.746;2023-06-26T01:30:46;5.30;;;3.30;;
46777;SDS011;32536;47.128;8.746;2023-06-26T01:33:14;4.95;;;2.22;;
46777;SDS011;32536;47.128;8.746;2023-06-26T01:35:41;4.13;;;2.30;;
46777;SDS011;32536;47.128;8.746;2023-06-26T01:38:18;4.78;;;3.08;;
46777;SDS011;32536;47.128;8.746;2023-06-26T01:40:46;4.45;;;2.95;;
46777;SDS011;32536;47.128;8.746;2023-06-26T01:55:12;5.63;;;3.80;;
46777;SDS011;32536;47.128;8.746;2023-06-26T02:01:01;4.53;;;2.53;;
46777;SDS011;32536;47.128;8.746;2023-06-26T02:03:28;4.60;;;2.10;;
46777;SDS011;32536;47.128;8.746;2023-06-26T02:05:56;4.75;;;2.47;;
46777;SDS011;32536;47.128;8.746;2023-06-26T02:08:22;4.13;;;2.25;;
46777;SDS011;32536;47.128;8.746;2023-06-26T02:10:49;4.05;;;1.30;;
46777;SDS011;32536;47.128;8.746;2023-06-26T02:13:16;4.07;;;2.15;;
46777;SDS011;32536;47.128;8.746;2023-06-26T02:15:43;3.83;;;2.40;;
46777;SDS011;32536;47.128;8.746;2023-06-26T02:18:09;3.17;;;1.48;;
46777;SDS011;32536;47.128;8.746;2023-06-26T02:20:36;3.80;;;1.80;;
46777;SDS011;32536;47.128;8.746;2023-06-26T02:23:03;4.78;;;2.97;;
46777;SDS011;32536;47.128;8.746;2023-06-26T02:25:29;4.68;;;2.67;;
46777;SDS011;32536;47.128;8.746;2023-06-26T02:27:56;3.88;;;2.17;;
46777;SDS011;32536;47.128;8.746;2023-06-26T02:30:23;4.22;;;2.42;;
46777;SDS011;32536;47.128;8.746;2023-06-26T02:32:49;4.05;;;2.17;;
46777;SDS011;32536;47.128;8.746;2023-06-26T02:35:16;3.78;;;2.28;;
46777;SDS011;32536;47.128;8.746;2023-06-26T02:37:43;3.28;;;1.17;;
46777;SDS011;32536;47.128;8.746;2023-06-26T02:40:10;3.95;;;2.45;;
46777;SDS011;32536;47.128;8.746;2023-06-26T02:42:37;4.75;;;2.45;;
46777;SDS011;32536;47.128;8.746;2023-06-26T02:45:04;4.75;;;2.58;;
46777;SDS011;32536;47.128;8.746;2023-06-26T02:47:31;4.47;;;3.00;;
46777;SDS011;32536;47.128;8.746;2023-06-26T02:49:58;5.80;;;3.20;;
46777;SDS011;32536;47.128;8.746;2023-06-26T02:52:24;5.90;;;3.65;;
46777;SDS011;32536;47.128;8.746;2023-06-26T02:54:51;4.85;;;2.25;;
46777;SDS011;32536;47.128;8.746;2023-06-26T02:57:18;4.55;;;2.20;;
46777;SDS011;32536;47.128;8.746;2023-06-26T02:59:44;3.83;;;1.83;;
46777;SDS011;32536;47.128;8.746;2023-06-26T03:02:11;5.03;;;3.08;;
46777;SDS011;32536;47.128;8.746;2023-06-26T03:04:38;5.07;;;3.10;;
46777;SDS011;32536;47.128;8.746;2023-06-26T03:07:04;4.88;;;2.35;;
46777;SDS011;32536;47.128;8.746;2023-06-26T03:09:31;5.20;;;2.92;;
46777;SDS011;32536;47.128;8.746;2023-06-26T03:11:58;4.22;;;2.70;;
46777;SDS011;32536;47.128;8.746;2023-06-26T03:14:25;4.15;;;1.70;;
46777;SDS011;32536;47.128;8.746;2023-06-26T03:16:52;4.53;;;2.50;;
46777;SDS011;32536;47.128;8.746;2023-06-26T03:19:22;4.05;;;2.50;;
46777;SDS011;32536;47.128;8.746;2023-06-26T03:21:49;3.95;;;2.15;;
46777;SDS011;32536;47.128;8.746;2023-06-26T03:24:16;4.85;;;3.00;;
46777;SDS011;32536;47.128;8.746;2023-06-26T03:26:42;3.85;;;1.77;;
46777;SDS011;32536;47.128;8.746;2023-06-26T03:29:10;4.30;;;2.65;;
46777;SDS011;32536;47.128;8.746;2023-06-26T03:31:36;4.10;;;2.00;;
46777;SDS011;32536;47.128;8.746;2023-06-26T03:34:03;4.18;;;2.05;;
46777;SDS011;32536;47.128;8.746;2023-06-26T03:36:30;3.53;;;1.60;;
46777;SDS011;32536;47.128;8.746;2023-06-26T03:38:56;4.32;;;2.13;;
46777;SDS011;32536;47.128;8.746;2023-06-26T03:41:23;4.75;;;3.05;;
46777;SDS011;32536;47.128;8.746;2023-06-26T03:43:50;5.13;;;2.70;;
46777;SDS011;32536;47.128;8.746;2023-06-26T03:46:17;4.82;;;2.53;;
46777;SDS011;32536;47.128;8.746;2023-06-26T03:48:45;4.72;;;2.45;;
46777;SDS011;32536;47.128;8.746;2023-06-26T03:51:11;6.15;;;4.15;;
46777;SDS011;32536;47.128;8.746;2023-06-26T03:53:38;6.20;;;4.13;;
46777;SDS011;32536;47.128;8.746;2023-06-26T03:56:05;5.82;;;3.65;;
46777;SDS011;32536;47.128;8.746;2023-06-26T03:58:41;5.47;;;3.20;;
46777;SDS011;32536;47.128;8.746;2023-06-26T04:01:07;4.55;;;2.08;;
46777;SDS011;32536;47.128;8.746;2023-06-26T04:03:34;6.07;;;3.22;;
46777;SDS011;32536;47.128;8.746;2023-06-26T04:06:01;4.90;;;2.30;;
46777;SDS011;32536;47.128;8.746;2023-06-26T04:08:27;4.75;;;2.38;;
46777;SDS011;32536;47.128;8.746;2023-06-26T04:10:54;7.30;;;3.28;;
46777;SDS011;32536;47.128;8.746;2023-06-26T04:13:23;6.10;;;3.30;;
46777;SDS011;32536;47.128;8.746;2023-06-26T04:15:50;6.63;;;3.53;;
46777;SDS011;32536;47.128;8.746;2023-06-26T04:18:16;5.53;;;2.83;;
46777;SDS011;32536;47.128;8.746;2023-06-26T04:23:39;4.18;;;1.60;;
46777;SDS011;32536;47.128;8.746;2023-06-26T04:26:07;3.35;;;1.40;;
46777;SDS011;32536;47.128;8.746;2023-06-26T04:28:34;3.97;;;1.60;;
46777;SDS011;32536;47.128;8.746;2023-06-26T04:31:02;3.10;;;1.48;;
46777;SDS011;32536;47.128;8.746;2023-06-26T04:33:31;3.70;;;1.80;;
46777;SDS011;32536;47.128;8.746;2023-06-26T04:35:58;4.97;;;3.65;;
46777;SDS011;32536;47.128;8.746;2023-06-26T04:38:29;3.88;;;1.75;;
46777;SDS011;32536;47.128;8.746;2023-06-26T04:40:57;4.10;;;1.90;;
46777;SDS011;32536;47.128;8.746;2023-06-26T04:43:24;4.68;;;2.20;;
46777;SDS011;32536;47.128;8.746;2023-06-26T04:45:50;4.20;;;2.30;;
46777;SDS011;32536;47.128;8.746;2023-06-26T04:48:17;5.85;;;3.38;;
46777;SDS011;32536;47.128;8.746;2023-06-26T04:50:44;5.68;;;3.33;;
46777;SDS011;32536;47.128;8.746;2023-06-26T04:53:18;6.07;;;2.20;;
46777;SDS011;32536;47.128;8.746;2023-06-26T04:55:45;3.63;;;1.67;;
46777;SDS011;32536;47.128;8.746;2023-06-26T05:01:13;4.10;;;1.58;;
46777;SDS011;32536;47.128;8.746;2023-06-26T05:03:39;3.47;;;1.90;;
46777;SDS011;32536;47.128;8.746;2023-06-26T05:06:06;4.30;;;2.08;;
46777;SDS011;32536;47.128;8.746;2023-06-26T05:08:33;4.32;;;2.13;;
46777;SDS011;32536;47.128;8.746;2023-06-26T05:10:59;5.43;;;2.40;;
46777;SDS011;32536;47.128;8.746;2023-06-26T05:13:26;4.97;;;2.95;;
46777;SDS011;32536;47.128;8.746;2023-06-26T05:15:53;5.50;;;3.13;;
46777;SDS011;32536;47.128;8.746;2023-06-26T05:18:20;7.30;;;2.95;;
46777;SDS011;32536;47.128;8.746;2023-06-26T05:20:47;5.97;;;3.65;;
46777;SDS011;32536;47.128;8.746;2023-06-26T05:23:14;5.13;;;2.83;;
46777;SDS011;32536;47.128;8.746;2023-06-26T05:25:42;4.32;;;2.00;;
46777;SDS011;32536;47.128;8.746;2023-06-26T05:28:09;4.00;;;1.98;;
46777;SDS011;32536;47.128;8.746;2023-06-26T05:30:37;3.88;;;1.90;;
46777;SDS011;32536;47.128;8.746;2023-06-26T05:33:04;5.60;;;3.08;;
46777;SDS011;32536;47.128;8.746;2023-06-26T05:35:32;4.95;;;2.70;;
46777;SDS011;32536;47.128;8.746;2023-06-26T05:38:00;5.35;;;3.20;;
46777;SDS011;32536;47.128;8.746;2023-06-26T05:40:27;5.57;;;3.35;;
46777;SDS011;32536;47.128;8.746;2023-06-26T05:42:54;6.10;;;3.20;;
46777;SDS011;32536;47.128;8.746;2023-06-26T05:45:21;5.60;;;2.67;;
46777;SDS011;32536;47.128;8.746;2023-06-26T05:47:48;4.55;;;2.47;;
46777;SDS011;32536;47.128;8.746;2023-06-26T05:50:17;4.40;;;2.67;;
46777;SDS011;32536;47.128;8.746;2023-06-26T05:52:45;5.03;;;2.42;;
46777;SDS011;32536;47.128;8.746;2023-06-26T05:55:12;6.40;;;4.05;;
46777;SDS011;32536;47.128;8.746;2023-06-26T05:57:39;5.80;;;3.45;;
46777;SDS011;32536;47.128;8.746;2023-06-26T06:00:08;6.80;;;4.18;;
46777;SDS011;32536;47.128;8.746;2023-06-26T06:02:36;6.53;;;3.38;;
46777;SDS011;32536;47.128;8.746;2023-06-26T06:05:04;5.03;;;3.30;;
46777;SDS011;32536;47.128;8.746;2023-06-26T06:07:34;3.88;;;1.75;;
46777;SDS011;32536;47.128;8.746;2023-06-26T06:10:02;5.00;;;2.83;;
46777;SDS011;32536;47.128;8.746;2023-06-26T06:12:30;4.05;;;2.08;;
46777;SDS011;32536;47.128;8.746;2023-06-26T06:14:56;3.97;;;2.17;;
46777;SDS011;32536;47.128;8.746;2023-06-26T06:17:23;5.72;;;2.53;;
46777;SDS011;32536;47.128;8.746;2023-06-26T06:19:50;5.20;;;2.03;;
46777;SDS011;32536;47.128;8.746;2023-06-26T06:22:17;4.18;;;1.88;;
46777;SDS011;32536;47.128;8.746;2023-06-26T06:24:44;6.45;;;3.75;;
46777;SDS011;32536;47.128;8.746;2023-06-26T06:27:10;5.00;;;2.47;;
46777;SDS011;32536;47.128;8.746;2023-06-26T06:29:37;4.60;;;2.78;;
46777;SDS011;32536;47.128;8.746;2023-06-26T06:32:04;3.92;;;1.63;;
46777;SDS011;32536;47.128;8.746;2023-06-26T06:34:31;4.68;;;2.13;;
46777;SDS011;32536;47.128;8.746;2023-06-26T06:36:58;4.30;;;2.05;;
46777;SDS011;32536;47.128;8.746;2023-06-26T06:39:25;3.95;;;1.88;;
46777;SDS011;32536;47.128;8.746;2023-06-26T06:41:51;6.03;;;3.22;;
46777;SDS011;32536;47.128;8.746;2023-06-26T06:44:18;5.72;;;2.55;;
46777;SDS011;32536;47.128;8.746;2023-06-26T06:46:45;5.80;;;2.92;;
46777;SDS011;32536;47.128;8.746;2023-06-26T06:49:11;5.63;;;3.15;;
46777;SDS011;32536;47.128;8.746;2023-06-26T06:51:38;7.75;;;4.25;;
46777;SDS011;32536;47.128;8.746;2023-06-26T06:54:05;5.57;;;2.75;;
46777;SDS011;32536;47.128;8.746;2023-06-26T06:56:32;6.40;;;3.90;;
46777;SDS011;32536;47.128;8.746;2023-06-26T06:58:58;5.50;;;3.33;;
46777;SDS011;32536;47.128;8.746;2023-06-26T07:01:25;6.60;;;2.67;;
46777;SDS011;32536;47.128;8.746;2023-06-26T07:03:52;4.85;;;2.38;;
46777;SDS011;32536;47.128;8.746;2023-06-26T07:06:19;5.38;;;3.00;;
46777;SDS011;32536;47.128;8.746;2023-06-26T07:08:45;6.20;;;3.60;;
46777;SDS011;32536;47.128;8.746;2023-06-26T07:11:12;5.50;;;3.15;;
46777;SDS011;32536;47.128;8.746;2023-06-26T07:13:39;5.07;;;2.50;;
46777;SDS011;32536;47.128;8.746;2023-06-26T07:16:05;5.63;;;3.08;;
46777;SDS011;32536;47.128;8.746;2023-06-26T07:18:33;7.25;;;3.90;;
46777;SDS011;32536;47.128;8.746;2023-06-26T07:20:59;6.35;;;3.60;;
46777;SDS011;32536;47.128;8.746;2023-06-26T07:23:26;6.95;;;3.55;;
46777;SDS011;32536;47.128;8.746;2023-06-26T07:25:53;5.88;;;3.70;;
46777;SDS011;32536;47.128;8.746;2023-06-26T07:28:20;5.15;;;3.03;;
46777;SDS011;32536;47.128;8.746;2023-06-26T07:30:46;4.80;;;2.65;;
46777;SDS011;32536;47.128;8.746;2023-06-26T07:33:13;5.70;;;3.15;;
46777;SDS011;32536;47.128;8.746;2023-06-26T07:35:40;5.65;;;3.38;;
46777;SDS011;32536;47.128;8.746;2023-06-26T07:38:06;6.18;;;3.38;;
46777;SDS011;32536;47.128;8.746;2023-06-26T07:40:33;6.00;;;3.75;;
46777;SDS011;32536;47.128;8.746;2023-06-26T07:43:00;6.78;;;3.25;;
46777;SDS011;32536;47.128;8.746;2023-06-26T07:45:26;7.00;;;4.20;;
46777;SDS011;32536;47.128;8.746;2023-06-26T07:47:53;7.43;;;4.10;;
46777;SDS011;32536;47.128;8.746;2023-06-26T07:50:20;6.88;;;4.00;;
46777;SDS011;32536;47.128;8.746;2023-06-26T07:52:48;6.63;;;3.38;;
46777;SDS011;32536;47.128;8.746;2023-06-26T07:55:15;6.35;;;3.80;;
46777;SDS011;32536;47.128;8.746;2023-06-26T07:57:42;6.32;;;3.78;;
46777;SDS011;32536;47.128;8.746;2023-06-26T08:00:11;7.63;;;3.95;;
46777;SDS011;32536;47.128;8.746;2023-06-26T08:02:38;6.90;;;4.15;;
46777;SDS011;32536;47.128;8.746;2023-06-26T08:05:05;6.65;;;3.78;;
46777;SDS011;32536;47.128;8.746;2023-06-26T08:07:31;5.68;;;3.45;;
46777;SDS011;32536;47.128;8.746;2023-06-26T08:09:58;5.60;;;3.03;;
46777;SDS011;32536;47.128;8.746;2023-06-26T08:12:25;5.90;;;3.47;;
46777;SDS011;32536;47.128;8.746;2023-06-26T08:14:51;7.15;;;3.97;;
46777;SDS011;32536;47.128;8.746;2023-06-26T08:17:18;6.80;;;3.72;;
46777;SDS011;32536;47.128;8.746;2023-06-26T08:19:45;6.80;;;4.20;;
46777;SDS011;32536;47.128;8.746;2023-06-26T08:22:12;6.55;;;4.15;;
46777;SDS011;32536;47.128;8.746;2023-06-26T08:24:38;7.20;;;3.88;;
46777;SDS011;32536;47.128;8.746;2023-06-26T08:27:05;6.32;;;4.13;;
46777;SDS011;32536;47.128;8.746;2023-06-26T08:29:33;6.93;;;3.97;;
46777;SDS011;32536;47.128;8.746;2023-06-26T08:32:00;5.85;;;2.92;;
46777;SDS011;32536;47.128;8.746;2023-06-26T08:34:27;5.60;;;3.00;;
46777;SDS011;32536;47.128;8.746;2023-06-26T08:36:54;6.20;;;3.13;;
46777;SDS011;32536;47.128;8.746;2023-06-26T08:39:21;6.43;;;3.35;;
46777;SDS011;32536;47.128;8.746;2023-06-26T08:41:47;5.78;;;3.35;;
46777;SDS011;32536;47.128;8.746;2023-06-26T08:44:14;6.95;;;3.88;;
46777;SDS011;32536;47.128;8.746;2023-06-26T08:46:41;6.05;;;3.38;;
46777;SDS011;32536;47.128;8.746;2023-06-26T08:49:13;5.53;;;3.13;;
46777;SDS011;32536;47.128;8.746;2023-06-26T08:51:50;6.30;;;3.70;;
46777;SDS011;32536;47.128;8.746;2023-06-26T08:54:22;4.75;;;2.25;;
46777;SDS011;32536;47.128;8.746;2023-06-26T08:56:56;5.82;;;3.20;;
46777;SDS011;32536;47.128;8.746;2023-06-26T08:59:25;6.63;;;3.35;;
46777;SDS011;32536;47.128;8.746;2023-06-26T09:01:52;5.57;;;3.10;;
46777;SDS011;32536;47.128;8.746;2023-06-26T09:04:19;5.03;;;2.42;;
46777;SDS011;32536;47.128;8.746;2023-06-26T09:06:46;5.35;;;2.83;;
46777;SDS011;32536;47.128;8.746;2023-06-26T09:09:13;5.55;;;3.20;;
46777;SDS011;32536;47.128;8.746;2023-06-26T09:11:39;6.30;;;3.80;;
46777;SDS011;32536;47.128;8.746;2023-06-26T09:14:07;6.20;;;2.78;;
46777;SDS011;32536;47.128;8.746;2023-06-26T09:16:39;5.10;;;2.67;;
46777;SDS011;32536;47.128;8.746;2023-06-26T09:19:11;4.72;;;2.08;;
46777;SDS011;32536;47.128;8.746;2023-06-26T09:21:39;5.95;;;3.25;;
46777;SDS011;32536;47.128;8.746;2023-06-26T09:24:07;6.07;;;3.90;;
46777;SDS011;32536;47.128;8.746;2023-06-26T09:26:38;4.80;;;2.55;;
46777;SDS011;32536;47.128;8.746;2023-06-26T09:29:06;6.68;;;5.00;;
46777;SDS011;32536;47.128;8.746;2023-06-26T09:31:34;6.68;;;3.45;;
46777;SDS011;32536;47.128;8.746;2023-06-26T09:34:05;6.10;;;3.45;;
46777;SDS011;32536;47.128;8.746;2023-06-26T09:36:33;5.53;;;3.20;;
46777;SDS011;32536;47.128;8.746;2023-06-26T09:39:02;5.15;;;3.20;;
46777;SDS011;32536;47.128;8.746;2023-06-26T09:41:37;4.45;;;2.05;;
46777;SDS011;32536;47.128;8.746;2023-06-26T09:44:05;7.15;;;3.83;;
46777;SDS011;32536;47.128;8.746;2023-06-26T09:46:33;5.47;;;2.88;;
46777;SDS011;32536;47.128;8.746;2023-06-26T09:49:10;5.88;;;3.67;;
46777;SDS011;32536;47.128;8.746;2023-06-26T09:51:38;5.95;;;3.55;;
46777;SDS011;32536;47.128;8.746;2023-06-26T09:54:07;5.90;;;3.13;;
46777;SDS011;32536;47.128;8.746;2023-06-26T09:56:35;5.93;;;3.05;;
46777;SDS011;32536;47.128;8.746;2023-06-26T09:59:05;5.00;;;2.75;;
46777;SDS011;32536;47.128;8.746;2023-06-26T10:01:33;5.88;;;3.17;;
46777;SDS011;32536;47.128;8.746;2023-06-26T10:04:05;5.20;;;2.88;;
46777;SDS011;32536;47.128;8.746;2023-06-26T10:06:35;6.03;;;3.40;;
46777;SDS011;32536;47.128;8.746;2023-06-26T10:09:07;7.15;;;3.47;;
46777;SDS011;32536;47.128;8.746;2023-06-26T10:11:41;6.88;;;3.83;;
46777;SDS011;32536;47.128;8.746;2023-06-26T10:14:21;8.82;;;5.25;;
46777;SDS011;32536;47.128;8.746;2023-06-26T10:16:55;6.50;;;3.42;;
46777;SDS011;32536;47.128;8.746;2023-06-26T10:19:26;7.47;;;5.05;;
46777;SDS011;32536;47.128;8.746;2023-06-26T10:21:54;6.18;;;3.50;;
46777;SDS011;32536;47.128;8.746;2023-06-26T10:24:22;7.07;;;3.25;;
46777;SDS011;32536;47.128;8.746;2023-06-26T10:26:51;5.88;;;3.53;;
46777;SDS011;32536;47.128;8.746;2023-06-26T10:29:34;6.70;;;4.10;;
46777;SDS011;32536;47.128;8.746;2023-06-26T10:32:02;6.07;;;3.42;;
46777;SDS011;32536;47.128;8.746;2023-06-26T10:34:31;7.03;;;4.03;;
46777;SDS011;32536;47.128;8.746;2023-06-26T10:36:59;6.75;;;3.88;;
46777;SDS011;32536;47.128;8.746;2023-06-26T10:39:27;6.82;;;4.05;;
46777;SDS011;32536;47.128;8.746;2023-06-26T10:42:19;6.78;;;4.00;;
46777;SDS011;32536;47.128;8.746;2023-06-26T10:44:54;7.20;;;3.97;;
46777;SDS011;32536;47.128;8.746;2023-06-26T10:47:30;5.30;;;2.67;;
46777;SDS011;32536;47.128;8.746;2023-06-26T10:52:45;7.43;;;4.72;;
46777;SDS011;32536;47.128;8.746;2023-06-26T10:55:13;6.75;;;4.45;;
46777;SDS011;32536;47.128;8.746;2023-06-26T10:57:44;6.40;;;3.80;;
46777;SDS011;32536;47.128;8.746;2023-06-26T11:00:14;6.57;;;3.22;;
46777;SDS011;32536;47.128;8.746;2023-06-26T11:02:48;5.90;;;3.47;;
46777;SDS011;32536;47.128;8.746;2023-06-26T11:05:25;5.60;;;2.95;;
46777;SDS011;32536;47.128;8.746;2023-06-26T11:08:07;6.93;;;4.35;;
46777;SDS011;32536;47.128;8.746;2023-06-26T11:10:54;7.25;;;4.25;;
46777;SDS011;32536;47.128;8.746;2023-06-26T11:13:26;6.72;;;4.32;;
46777;SDS011;32536;47.128;8.746;2023-06-26T11:15:54;7.45;;;4.75;;
46777;SDS011;32536;47.128;8.746;2023-06-26T11:18:22;7.13;;;4.57;;
46777;SDS011;32536;47.128;8.746;2023-06-26T11:20:50;8.77;;;5.50;;
46777;SDS011;32536;47.128;8.746;2023-06-26T11:23:18;7.78;;;4.60;;
46777;SDS011;32536;47.128;8.746;2023-06-26T11:25:50;9.00;;;4.38;;
46777;SDS011;32536;47.128;8.746;2023-06-26T11:28:16;6.47;;;4.22;;
46777;SDS011;32536;47.128;8.746;2023-06-26T11:30:43;5.35;;;2.67;;
46777;SDS011;32536;47.128;8.746;2023-06-26T11:33:10;8.13;;;4.65;;
46777;SDS011;32536;47.128;8.746;2023-06-26T11:35:37;8.88;;;6.07;;
46777;SDS011;32536;47.128;8.746;2023-06-26T11:38:04;9.25;;;5.10;;
46777;SDS011;32536;47.128;8.746;2023-06-26T11:40:35;7.70;;;4.70;;
46777;SDS011;32536;47.128;8.746;2023-06-26T11:43:02;6.35;;;3.80;;
46777;SDS011;32536;47.128;8.746;2023-06-26T11:45:30;7.97;;;4.97;;
46777;SDS011;32536;47.128;8.746;2023-06-26T11:47:58;6.95;;;4.25;;
46777;SDS011;32536;47.128;8.746;2023-06-26T11:50:27;8.15;;;5.45;;
46777;SDS011;32536;47.128;8.746;2023-06-26T11:52:55;7.57;;;4.22;;
46777;SDS011;32536;47.128;8.746;2023-06-26T11:55:23;7.40;;;4.38;;
46777;SDS011;32536;47.128;8.746;2023-06-26T11:57:55;9.50;;;5.68;;
46777;SDS011;32536;47.128;8.746;2023-06-26T12:00:23;7.68;;;4.38;;
46777;SDS011;32536;47.128;8.746;2023-06-26T12:02:50;7.05;;;4.45;;
46777;SDS011;32536;47.128;8.746;2023-06-26T12:05:17;6.20;;;4.28;;
46777;SDS011;32536;47.128;8.746;2023-06-26T12:07:45;7.47;;;4.88;;
46777;SDS011;32536;47.128;8.746;2023-06-26T12:10:13;7.28;;;4.70;;
46777;SDS011;32536;47.128;8.746;2023-06-26T12:12:41;6.97;;;3.72;;
46777;SDS011;32536;47.128;8.746;2023-06-26T12:15:08;6.85;;;4.53;;
46777;SDS011;32536;47.128;8.746;2023-06-26T12:17:41;7.15;;;4.38;;
46777;SDS011;32536;47.128;8.746;2023-06-26T12:20:20;7.38;;;5.47;;
46777;SDS011;32536;47.128;8.746;2023-06-26T12:22:51;8.63;;;5.57;;
46777;SDS011;32536;47.128;8.746;2023-06-26T12:25:21;7.50;;;5.13;;
46777;SDS011;32536;47.128;8.746;2023-06-26T12:27:49;7.45;;;5.05;;
46777;SDS011;32536;47.128;8.746;2023-06-26T12:30:16;7.38;;;5.13;;
46777;SDS011;32536;47.128;8.746;2023-06-26T12:32:46;7.88;;;4.90;;
46777;SDS011;32536;47.128;8.746;2023-06-26T12:35:13;7.78;;;4.88;;
46777;SDS011;32536;47.128;8.746;2023-06-26T12:37:41;8.80;;;5.45;;
46777;SDS011;32536;47.128;8.746;2023-06-26T12:40:19;8.63;;;5.25;;
46777;SDS011;32536;47.128;8.746;2023-06-26T12:42:49;6.68;;;3.58;;
46777;SDS011;32536;47.128;8.746;2023-06-26T12:45:16;5.68;;;3.25;;
46777;SDS011;32536;47.128;8.746;2023-06-26T12:47:43;5.50;;;2.75;;
46777;SDS011;32536;47.128;8.746;2023-06-26T12:50:11;6.55;;;3.22;;
46777;SDS011;32536;47.128;8.746;2023-06-26T12:52:38;7.22;;;4.05;;
46777;SDS011;32536;47.128;8.746;2023-06-26T12:55:05;6.03;;;3.65;;
46777;SDS011;32536;47.128;8.746;2023-06-26T12:57:32;7.53;;;5.05;;
46777;SDS011;32536;47.128;8.746;2023-06-26T12:59:59;8.40;;;4.80;;
46777;SDS011;32536;47.128;8.746;2023-06-26T13:02:26;7.60;;;4.97;;
46777;SDS011;32536;47.128;8.746;2023-06-26T13:04:53;7.40;;;4.00;;
46777;SDS011;32536;47.128;8.746;2023-06-26T13:07:20;7.85;;;4.38;;
46777;SDS011;32536;47.128;8.746;2023-06-26T13:09:47;6.05;;;3.15;;
46777;SDS011;32536;47.128;8.746;2023-06-26T13:12:14;5.00;;;2.72;;
46777;SDS011;32536;47.128;8.746;2023-06-26T13:14:40;5.25;;;2.47;;
46777;SDS011;32536;47.128;8.746;2023-06-26T13:17:07;4.65;;;2.33;;
46777;SDS011;32536;47.128;8.746;2023-06-26T13:19:34;5.82;;;1.90;;
46777;SDS011;32536;47.128;8.746;2023-06-26T13:22:00;5.72;;;2.80;;
46777;SDS011;32536;47.128;8.746;2023-06-26T13:24:27;6.13;;;2.95;;
46777;SDS011;32536;47.128;8.746;2023-06-26T13:26:54;5.15;;;2.60;;
46777;SDS011;32536;47.128;8.746;2023-06-26T13:29:20;6.65;;;3.53;;
46777;SDS011;32536;47.128;8.746;2023-06-26T13:31:48;6.85;;;4.80;;
46777;SDS011;32536;47.128;8.746;2023-06-26T13:34:21;6.63;;;3.90;;
46777;SDS011;32536;47.128;8.746;2023-06-26T13:36:49;5.72;;;2.88;;
46777;SDS011;32536;47.128;8.746;2023-06-26T13:39:16;5.88;;;3.42;;
46777;SDS011;32536;47.128;8.746;2023-06-26T13:41:43;7.07;;;4.65;;
46777;SDS011;32536;47.128;8.746;2023-06-26T13:44:10;8.70;;;4.68;;
46777;SDS011;32536;47.128;8.746;2023-06-26T13:46:36;6.35;;;3.08;;
46777;SDS011;32536;47.128;8.746;2023-06-26T13:49:03;6.15;;;2.90;;
46777;SDS011;32536;47.128;8.746;2023-06-26T13:51:30;5.50;;;3.03;;
46777;SDS011;32536;47.128;8.746;2023-06-26T13:53:56;5.55;;;2.88;;
46777;SDS011;32536;47.128;8.746;2023-06-26T13:56:26;7.47;;;3.33;;
46777;SDS011;32536;47.128;8.746;2023-06-26T14:01:44;6.63;;;3.00;;
46777;SDS011;32536;47.128;8.746;2023-06-26T14:04:11;5.07;;;2.47;;
46777;SDS011;32536;47.128;8.746;2023-06-26T14:06:38;5.60;;;2.45;;
46777;SDS011;32536;47.128;8.746;2023-06-26T14:09:04;6.03;;;2.97;;
46777;SDS011;32536;47.128;8.746;2023-06-26T14:11:32;5.35;;;2.85;;
46777;SDS011;32536;47.128;8.746;2023-06-26T14:13:59;5.43;;;2.80;;
46777;SDS011;32536;47.128;8.746;2023-06-26T14:16:26;4.93;;;2.28;;
46777;SDS011;32536;47.128;8.746;2023-06-26T14:18:54;5.40;;;3.15;;
46777;SDS011;32536;47.128;8.746;2023-06-26T14:21:21;8.10;;;3.35;;
46777;SDS011;32536;47.128;8.746;2023-06-26T14:23:47;5.93;;;3.30;;
46777;SDS011;32536;47.128;8.746;2023-06-26T14:26:14;8.45;;;4.72;;
46777;SDS011;32536;47.128;8.746;2023-06-26T14:28:41;8.27;;;4.75;;
46777;SDS011;32536;47.128;8.746;2023-06-26T14:31:07;5.45;;;2.85;;
46777;SDS011;32536;47.128;8.746;2023-06-26T14:33:34;5.40;;;3.17;;
46777;SDS011;32536;47.128;8.746;2023-06-26T14:36:01;4.93;;;2.60;;
46777;SDS011;32536;47.128;8.746;2023-06-26T14:38:27;4.20;;;2.13;;
46777;SDS011;32536;47.128;8.746;2023-06-26T14:40:54;4.70;;;2.78;;
46777;SDS011;32536;47.128;8.746;2023-06-26T14:43:21;4.70;;;2.47;;
46777;SDS011;32536;47.128;8.746;2023-06-26T14:45:49;3.50;;;1.80;;
46777;SDS011;32536;47.128;8.746;2023-06-26T14:48:16;5.57;;;2.78;;
46777;SDS011;32536;47.128;8.746;2023-06-26T14:50:44;4.72;;;2.40;;
46777;SDS011;32536;47.128;8.746;2023-06-26T14:53:11;4.93;;;2.72;;
46777;SDS011;32536;47.128;8.746;2023-06-26T14:55:38;7.10;;;4.47;;
46777;SDS011;32536;47.128;8.746;2023-06-26T14:58:05;8.05;;;4.45;;
46777;SDS011;32536;47.128;8.746;2023-06-26T15:00:31;7.65;;;5.03;;
46777;SDS011;32536;47.128;8.746;2023-06-26T15:02:58;8.00;;;4.93;;
46777;SDS011;32536;47.128;8.746;2023-06-26T15:05:25;7.65;;;4.85;;
46777;SDS011;32536;47.128;8.746;2023-06-26T15:07:51;8.32;;;5.93;;
46777;SDS011;32536;47.128;8.746;2023-06-26T15:10:18;9.90;;;5.00;;
46777;SDS011;32536;47.128;8.746;2023-06-26T15:12:45;7.40;;;5.05;;
46777;SDS011;32536;47.128;8.746;2023-06-26T15:15:12;8.60;;;4.95;;
46777;SDS011;32536;47.128;8.746;2023-06-26T15:17:38;5.43;;;3.55;;
46777;SDS011;32536;47.128;8.746;2023-06-26T15:20:06;5.65;;;2.92;;